Time;durP1;ratioP1;P1;durP2;ratioP2;P2;SDS_P1;SDS_P2;PMS_P1;PMS_P2;Temp;Humidity;BMP_temperature;BMP_pressure;BME280_temperature;BME280_humidity;BME280_pressure;Samples;Min_cycle;Max_cycle;Signal;HPM_P1;HPM_P2
2024/04/21 00:01:26;;;;;;;0.77;0.70;;;;;;;;;;6681162;26;20013;-77
2024/04/21 00:04:27;;;;;;;1.00;0.70;;;;;;;;;;6700621;26;20072;-77
2024/04/21 00:07:27;;;;;;;0.60;0.53;;;;;;;;;;6697415;26;20087;-77
2024/04/21 00:10:27;;;;;;;0.70;0.70;;;;;;;;;;6680341;26;20070;-77
2024/04/21 00:13:28;;;;;;;0.93;0.60;;;;;;;;;;6683984;26;20066;-77
2024/04/21 00:16:28;;;;;;;0.60;0.60;;;;;;;;;;6649313;26;20078;-77
2024/04/21 00:19:28;;;;;;;0.60;0.50;;;;;;;;;;6678326;26;20474;-77
2024/04/21 00:22:28;;;;;;;0.60;0.57;;;;;;;;;;6679319;26;20465;-77
2024/04/21 00:25:29;;;;;;;1.73;0.60;;;;;;;;;;6691527;26;20029;-77
2024/04/21 00:28:30;;;;;;;0.70;0.67;;;;;;;;;;6691764;26;20004;-77
2024/04/21 00:31:30;;;;;;;0.68;0.60;;;;;;;;;;6655658;26;19996;-77
2024/04/21 00:34:30;;;;;;;0.67;0.57;;;;;;;;;;6688819;26;19999;-77
2024/04/21 00:37:30;;;;;;;0.60;0.60;;;;;;;;;;6684832;26;19996;-77
2024/04/21 00:40:31;;;;;;;0.83;0.70;;;;;;;;;;6690957;26;20098;-77
2024/04/21 00:43:31;;;;;;;0.57;0.57;;;;;;;;;;6717866;26;19995;-77
2024/04/21 00:46:32;;;;;;;1.17;0.80;;;;;;;;;;6689996;26;20226;-77
2024/04/21 00:49:32;;;;;;;1.13;0.70;;;;;;;;;;6689839;26;20008;-77
2024/04/21 00:52:32;;;;;;;1.80;0.70;;;;;;;;;;6687793;26;20019;-77
2024/04/21 00:55:33;;;;;;;0.70;0.70;;;;;;;;;;6697163;26;19996;-77
2024/04/21 00:58:33;;;;;;;1.00;0.50;;;;;;;;;;6700509;26;20397;-77
2024/04/21 01:01:33;;;;;;;1.30;0.77;;;;;;;;;;6698312;26;20396;-78
2024/04/21 01:04:34;;;;;;;0.63;0.60;;;;;;;;;;6697181;26;20019;-77
2024/04/21 01:07:36;;;;;;;1.03;0.60;;;;;;;;;;6694422;26;20437;-77
2024/04/21 01:10:36;;;;;;;1.00;0.80;;;;;;;;;;6694555;26;20008;-77
2024/04/21 01:13:36;;;;;;;0.83;0.80;;;;;;;;;;6701690;26;20065;-77
2024/04/21 01:16:36;;;;;;;0.53;0.53;;;;;;;;;;6698834;26;20441;-77
2024/04/21 01:19:37;;;;;;;0.63;0.60;;;;;;;;;;6708509;26;20433;-77
2024/04/21 01:22:39;;;;;;;0.80;0.67;;;;;;;;;;6680123;26;20551;-77
2024/04/21 01:25:39;;;;;;;0.73;0.57;;;;;;;;;;6687577;26;20450;-77
2024/04/21 01:28:39;;;;;;;0.57;0.57;;;;;;;;;;6660366;26;19996;-77
2024/04/21 01:31:40;;;;;;;2.73;0.50;;;;;;;;;;6695744;26;20543;-77
2024/04/21 01:34:40;;;;;;;0.60;0.50;;;;;;;;;;6710143;26;20459;-77
2024/04/21 01:37:40;;;;;;;0.87;0.80;;;;;;;;;;6710160;26;20445;-77
2024/04/21 01:40:41;;;;;;;0.63;0.60;;;;;;;;;;6681222;26;20424;-77
2024/04/21 01:43:41;;;;;;;0.90;0.77;;;;;;;;;;6663311;26;20514;-77
2024/04/21 01:46:41;;;;;;;0.93;0.73;;;;;;;;;;6643520;26;20463;-77
2024/04/21 01:49:42;;;;;;;0.70;0.70;;;;;;;;;;6676655;26;20341;-77
2024/04/21 01:52:42;;;;;;;1.00;0.80;;;;;;;;;;6677001;26;20515;-77
2024/04/21 01:55:42;;;;;;;1.00;0.73;;;;;;;;;;6677797;26;19992;-77
2024/04/21 01:58:44;;;;;;;0.55;0.55;;;;;;;;;;6679294;26;20126;-77
2024/04/21 02:01:44;;;;;;;0.70;0.70;;;;;;;;;;6675172;26;20080;-77
2024/04/21 02:04:44;;;;;;;0.73;0.60;;;;;;;;;;6674207;26;20003;-77
2024/04/21 02:07:44;;;;;;;0.83;0.70;;;;;;;;;;6678221;26;19997;-77
2024/04/21 02:10:45;;;;;;;1.00;0.80;;;;;;;;;;6675842;26;20475;-77
2024/04/21 02:13:45;;;;;;;1.10;0.70;;;;;;;;;;6677189;26;20464;-77
2024/04/21 02:16:45;;;;;;;0.90;0.70;;;;;;;;;;6672338;26;20071;-77
2024/04/21 02:19:45;;;;;;;0.60;0.60;;;;;;;;;;6672491;26;20044;-77
2024/04/21 02:22:46;;;;;;;0.83;0.73;;;;;;;;;;6652242;26;20012;-77
2024/04/21 02:25:55;;;;;;;0.70;0.70;;;;;;;;;;6677175;26;19996;-77
2024/04/21 02:28:55;;;;;;;0.75;0.70;;;;;;;;;;6672620;26;20008;-77
2024/04/21 02:31:55;;;;;;;1.10;0.90;;;;;;;;;;6677360;26;20337;-77
2024/04/21 02:34:56;;;;;;;0.70;0.70;;;;;;;;;;6673731;26;19996;-77
2024/04/21 02:37:56;;;;;;;1.13;0.93;;;;;;;;;;6674381;26;20008;-77
2024/04/21 02:40:57;;;;;;;1.00;0.80;;;;;;;;;;6676600;26;20023;-77
2024/04/21 02:43:57;;;;;;;1.13;0.83;;;;;;;;;;6676543;26;20008;-77
2024/04/21 02:46:57;;;;;;;1.67;0.80;;;;;;;;;;6677242;26;20238;-77
2024/04/21 02:49:57;;;;;;;0.97;0.73;;;;;;;;;;6672877;26;20321;-77
2024/04/21 02:52:58;;;;;;;1.00;0.70;;;;;;;;;;6659276;26;20024;-77
2024/04/21 02:55:58;;;;;;;0.70;0.60;;;;;;;;;;6673071;26;20023;-77
2024/04/21 02:58:58;;;;;;;1.10;0.90;;;;;;;;;;6679610;26;20354;-77
2024/04/21 03:01:58;;;;;;;1.10;0.63;;;;;;;;;;6672190;26;20040;-76
2024/04/21 03:04:59;;;;;;;0.70;0.70;;;;;;;;;;6672696;26;20012;-77
2024/04/21 03:07:59;;;;;;;1.03;0.80;;;;;;;;;;6671468;26;19996;-77
2024/04/21 03:10:59;;;;;;;0.93;0.83;;;;;;;;;;6675147;26;20455;-77
2024/04/21 03:14:00;;;;;;;0.77;0.77;;;;;;;;;;6679503;26;20066;-77
2024/04/21 03:17:02;;;;;;;1.27;0.73;;;;;;;;;;6676015;26;20587;-77
2024/04/21 03:20:03;;;;;;;1.10;0.88;;;;;;;;;;6678428;26;20012;-75
2024/04/21 03:23:03;;;;;;;1.00;0.87;;;;;;;;;;6671825;26;20007;-76
2024/04/21 03:26:04;;;;;;;1.10;1.00;;;;;;;;;;6675893;26;20437;-76
2024/04/21 03:29:04;;;;;;;1.13;0.90;;;;;;;;;;6677660;26;20004;-76
2024/04/21 03:32:04;;;;;;;1.83;1.00;;;;;;;;;;6672398;26;19992;-76
2024/04/21 03:35:05;;;;;;;0.90;0.77;;;;;;;;;;6674665;26;20316;-76
2024/04/21 03:38:05;;;;;;;0.87;0.80;;;;;;;;;;6663314;26;20000;-76
2024/04/21 03:41:05;;;;;;;0.80;0.80;;;;;;;;;;6670727;26;20000;-76
2024/04/21 03:44:05;;;;;;;2.10;0.80;;;;;;;;;;6671037;26;20456;-76
2024/04/21 03:47:06;;;;;;;1.47;1.10;;;;;;;;;;6674689;26;20078;-76
2024/04/21 03:50:06;;;;;;;1.40;1.00;;;;;;;;;;6657628;26;20004;-76
2024/04/21 03:53:11;;;;;;;0.97;0.90;;;;;;;;;;6706920;26;20509;-76
2024/04/21 03:56:12;;;;;;;1.00;0.70;;;;;;;;;;6671730;26;20012;-75
2024/04/21 03:59:12;;;;;;;0.97;0.70;;;;;;;;;;6669252;26;20025;-76
2024/04/21 04:02:12;;;;;;;1.40;0.80;;;;;;;;;;6672622;26;20007;-76
2024/04/21 04:05:12;;;;;;;1.73;0.90;;;;;;;;;;6678855;26;20457;-76
2024/04/21 04:08:13;;;;;;;0.90;0.80;;;;;;;;;;6677401;26;20453;-75
2024/04/21 04:11:13;;;;;;;1.10;0.80;;;;;;;;;;6643892;26;20070;-76
2024/04/21 04:14:14;;;;;;;1.20;1.00;;;;;;;;;;6674667;26;20393;-76
2024/04/21 04:17:14;;;;;;;0.88;0.80;;;;;;;;;;6705561;26;20007;-76
2024/04/21 04:20:14;;;;;;;1.00;0.90;;;;;;;;;;6678596;26;20000;-75
2024/04/21 04:23:15;;;;;;;1.47;0.90;;;;;;;;;;6675340;26;20530;-75
2024/04/21 04:26:15;;;;;;;1.00;0.83;;;;;;;;;;6675682;26;20007;-76
2024/04/21 04:29:15;;;;;;;1.50;0.97;;;;;;;;;;6683036;26;20015;-75
2024/04/21 04:32:15;;;;;;;3.53;1.00;;;;;;;;;;6679123;26;19992;-75
2024/04/21 04:35:16;;;;;;;1.10;0.77;;;;;;;;;;6647655;26;20015;-76
2024/04/21 04:38:16;;;;;;;1.13;0.70;;;;;;;;;;6642539;26;19997;-75
2024/04/21 04:41:16;;;;;;;1.03;0.93;;;;;;;;;;6657391;26;20348;-76
2024/04/21 04:44:17;;;;;;;1.20;0.83;;;;;;;;;;6679880;26;20594;-76
2024/04/21 04:47:17;;;;;;;1.70;0.80;;;;;;;;;;6679493;26;20370;-76
2024/04/21 04:50:17;;;;;;;0.97;0.77;;;;;;;;;;6680064;26;20468;-76
2024/04/21 04:53:17;;;;;;;1.07;0.97;;;;;;;;;;6661322;26;20534;-75
2024/04/21 04:56:18;;;;;;;1.07;0.87;;;;;;;;;;6678730;26;20007;-76
2024/04/21 04:59:18;;;;;;;1.27;0.80;;;;;;;;;;6677482;26;20015;-76
2024/04/21 05:02:18;;;;;;;1.03;0.80;;;;;;;;;;6680441;26;20052;-76
2024/04/21 05:05:18;;;;;;;1.03;0.80;;;;;;;;;;6675338;26;19996;-76
2024/04/21 05:08:19;;;;;;;1.23;0.90;;;;;;;;;;6678081;26;20024;-75
2024/04/21 05:11:19;;;;;;;1.47;1.03;;;;;;;;;;6678251;26;20618;-76
2024/04/21 05:14:19;;;;;;;1.07;0.87;;;;;;;;;;6673736;26;20445;-76
2024/04/21 05:17:19;;;;;;;0.60;0.60;;;;;;;;;;6672546;26;20012;-75
2024/04/21 05:20:20;;;;;;;2.07;1.07;;;;;;;;;;6661105;26;20112;-76
2024/04/21 05:23:20;;;;;;;1.00;0.90;;;;;;;;;;6675119;26;20008;-76
2024/04/21 05:26:20;;;;;;;1.13;1.03;;;;;;;;;;6680422;26;20014;-76
2024/04/21 05:29:20;;;;;;;1.13;0.90;;;;;;;;;;6682006;26;20016;-75
2024/04/21 05:32:21;;;;;;;1.20;0.97;;;;;;;;;;6677757;26;19992;-75
2024/04/21 05:35:21;;;;;;;1.13;0.90;;;;;;;;;;6677898;26;20051;-76
2024/04/21 05:38:21;;;;;;;0.83;0.83;;;;;;;;;;6677518;26;20032;-76
2024/04/21 05:41:21;;;;;;;1.00;0.90;;;;;;;;;;6672073;26;20321;-77
2024/04/21 05:44:22;;;;;;;1.00;0.90;;;;;;;;;;6676404;26;19996;-77
2024/04/21 05:47:22;;;;;;;1.13;0.97;;;;;;;;;;6674966;26;20000;-76
2024/04/21 05:50:22;;;;;;;1.00;0.90;;;;;;;;;;6678034;26;20070;-76
2024/04/21 05:53:22;;;;;;;1.07;0.97;;;;;;;;;;6676621;26;20440;-77
2024/04/21 05:56:23;;;;;;;1.93;0.87;;;;;;;;;;6683530;26;19996;-77
2024/04/21 05:59:23;;;;;;;1.43;1.00;;;;;;;;;;6680411;26;20408;-77
2024/04/21 06:02:24;;;;;;;0.95;0.85;;;;;;;;;;6682233;26;20023;-77
2024/04/21 06:05:24;;;;;;;1.17;1.00;;;;;;;;;;6680223;26;20327;-76
2024/04/21 06:08:24;;;;;;;1.10;0.90;;;;;;;;;;6648358;26;20448;-77
2024/04/21 06:11:24;;;;;;;1.47;0.90;;;;;;;;;;6677135;26;20394;-77
2024/04/21 06:14:25;;;;;;;0.93;0.90;;;;;;;;;;6684494;26;20004;-76
2024/04/21 06:17:25;;;;;;;1.40;0.90;;;;;;;;;;6685153;26;20007;-76
2024/04/21 06:20:25;;;;;;;1.53;1.03;;;;;;;;;;6680935;26;19996;-76
2024/04/21 06:23:25;;;;;;;1.20;0.97;;;;;;;;;;6681587;26;20007;-77
2024/04/21 06:26:26;;;;;;;1.30;0.97;;;;;;;;;;6683754;26;20326;-76
2024/04/21 06:29:26;;;;;;;1.10;0.93;;;;;;;;;;6674967;26;20000;-77
2024/04/21 06:32:26;;;;;;;0.90;0.73;;;;;;;;;;6675954;26;20019;-77
2024/04/21 06:35:27;;;;;;;0.83;0.83;;;;;;;;;;6685157;26;20047;-77
2024/04/21 06:38:30;;;;;;;1.07;0.97;;;;;;;;;;6677171;26;20502;-77
2024/04/21 06:41:30;;;;;;;1.75;0.90;;;;;;;;;;6678723;26;20445;-77
2024/04/21 06:44:30;;;;;;;1.40;1.20;;;;;;;;;;6682205;26;19999;-77
2024/04/21 06:47:31;;;;;;;1.90;1.10;;;;;;;;;;6675334;26;20020;-77
2024/04/21 06:50:32;;;;;;;0.90;0.90;;;;;;;;;;6680893;26;20452;-76
2024/04/21 06:53:32;;;;;;;1.05;0.75;;;;;;;;;;6677952;26;20437;-75
2024/04/21 06:56:32;;;;;;;1.20;0.83;;;;;;;;;;6676646;26;19992;-75
2024/04/21 06:59:34;;;;;;;1.00;0.90;;;;;;;;;;6681821;26;20669;-76
2024/04/21 07:02:34;;;;;;;1.10;0.93;;;;;;;;;;6681704;26;20032;-76
2024/04/21 07:05:34;;;;;;;1.30;1.00;;;;;;;;;;6685150;26;19992;-76
2024/04/21 07:08:34;;;;;;;1.63;1.00;;;;;;;;;;6689371;26;19996;-75
2024/04/21 07:11:34;;;;;;;0.90;0.80;;;;;;;;;;6673254;26;20286;-75
2024/04/21 07:14:35;;;;;;;0.93;0.80;;;;;;;;;;6683949;26;20036;-76
2024/04/21 07:17:35;;;;;;;1.03;0.87;;;;;;;;;;6680676;26;20011;-76
2024/04/21 07:20:35;;;;;;;0.73;0.70;;;;;;;;;;6684136;26;20000;-75
2024/04/21 07:23:37;;;;;;;1.37;0.80;;;;;;;;;;6676514;26;20066;-75
2024/04/21 07:26:37;;;;;;;0.95;0.80;;;;;;;;;;6685896;26;20395;-75
2024/04/21 07:29:37;;;;;;;1.37;0.90;;;;;;;;;;6680874;26;20000;-77
2024/04/21 07:32:37;;;;;;;2.23;0.93;;;;;;;;;;6682641;26;20486;-75
2024/04/21 07:35:38;;;;;;;1.60;0.90;;;;;;;;;;6675084;26;19997;-76
2024/04/21 07:38:38;;;;;;;1.67;0.80;;;;;;;;;;6675974;26;20015;-76
2024/04/21 07:41:39;;;;;;;1.03;0.90;;;;;;;;;;6678993;26;20024;-76
2024/04/21 07:44:39;;;;;;;1.00;0.90;;;;;;;;;;6681540;26;20336;-76
2024/04/21 07:47:40;;;;;;;0.70;0.70;;;;;;;;;;6685408;26;21683;-82
2024/04/21 07:50:43;;;;;;;1.30;1.03;;;;;;;;;;6687650;26;20000;-78
2024/04/21 07:53:43;;;;;;;1.20;0.77;;;;;;;;;;6685197;26;20014;-78
2024/04/21 07:56:46;;;;;;;0.70;0.70;;;;;;;;;;6660716;26;20008;-80
2024/04/21 07:59:46;;;;;;;0.88;0.88;;;;;;;;;;6680994;26;20444;-75
2024/04/21 08:02:47;;;;;;;0.80;0.70;;;;;;;;;;6679595;26;20000;-75
2024/04/21 08:05:47;;;;;;;0.97;0.80;;;;;;;;;;6687529;26;20031;-75
2024/04/21 08:08:47;;;;;;;0.70;0.70;;;;;;;;;;6689647;26;20012;-75
2024/04/21 08:11:47;;;;;;;1.23;0.60;;;;;;;;;;6683529;26;20011;-76
2024/04/21 08:14:48;;;;;;;0.70;0.60;;;;;;;;;;6681203;26;20012;-77
2024/04/21 08:17:48;;;;;;;1.47;0.70;;;;;;;;;;6668698;26;20077;-78
2024/04/21 08:20:48;;;;;;;0.67;0.60;;;;;;;;;;6651455;26;20073;-78
2024/04/21 08:23:48;;;;;;;0.53;0.53;;;;;;;;;;6679842;26;20048;-75
2024/04/21 08:26:49;;;;;;;0.40;0.40;;;;;;;;;;6682501;26;19991;-76
2024/04/21 08:29:49;;;;;;;0.90;0.70;;;;;;;;;;6682463;26;20363;-77
2024/04/21 08:32:49;;;;;;;1.10;0.60;;;;;;;;;;6681975;26;20074;-76
2024/04/21 08:35:53;;;;;;;2.00;0.80;;;;;;;;;;6681917;26;20000;-78
2024/04/21 08:38:55;;;;;;;0.80;0.45;;;;;;;;;;6651695;26;19996;-75
2024/04/21 08:41:55;;;;;;;;;;;;;;;;;;6681453;26;20007;-75
2024/04/21 08:44:55;;;;;;;0.88;0.47;;;;;;;;;;6717868;26;19934;-75
2024/04/21 08:47:55;;;;;;;1.10;0.50;;;;;;;;;;6693721;26;20004;-75
2024/04/21 08:50:56;;;;;;;0.40;0.40;;;;;;;;;;6693919;26;19996;-76
2024/04/21 08:53:56;;;;;;;0.73;0.60;;;;;;;;;;6692731;26;20497;-75
2024/04/21 08:56:58;;;;;;;0.40;0.40;;;;;;;;;;6680514;26;20016;-75
2024/04/21 08:59:59;;;;;;;0.47;0.43;;;;;;;;;;6684881;26;20418;-75
2024/04/21 09:03:00;;;;;;;1.20;0.50;;;;;;;;;;6671887;26;20473;-75
2024/04/21 09:06:00;;;;;;;0.50;0.50;;;;;;;;;;6696048;26;20011;-75
2024/04/21 09:09:01;;;;;;;0.70;0.60;;;;;;;;;;6689852;26;20028;-75
2024/04/21 09:12:01;;;;;;;0.40;0.40;;;;;;;;;;6711569;26;20089;-75
2024/04/21 09:15:01;;;;;;;0.60;0.60;;;;;;;;;;6659640;26;20420;-77
2024/04/21 09:18:01;;;;;;;0.60;0.60;;;;;;;;;;6709783;26;20353;-76
2024/04/21 09:21:02;;;;;;;0.57;0.57;;;;;;;;;;6692882;26;20007;-76
2024/04/21 09:24:02;;;;;;;0.90;0.50;;;;;;;;;;6711960;26;20004;-77
2024/04/21 09:27:03;;;;;;;0.73;0.67;;;;;;;;;;6692749;26;20014;-76
2024/04/21 09:30:04;;;;;;;0.90;0.80;;;;;;;;;;6699857;26;20003;-76
2024/04/21 09:33:06;;;;;;;0.77;0.70;;;;;;;;;;6696667;26;20088;-77
2024/04/21 09:36:06;;;;;;;0.70;0.70;;;;;;;;;;6698193;26;19995;-77
2024/04/21 09:39:07;;;;;;;0.70;0.60;;;;;;;;;;6694998;26;20040;-76
2024/04/21 09:42:07;;;;;;;0.57;0.57;;;;;;;;;;6693125;26;20326;-76
2024/04/21 09:45:08;;;;;;;0.93;0.70;;;;;;;;;;6684437;26;20040;-76
2024/04/21 09:48:08;;;;;;;1.10;0.70;;;;;;;;;;6695023;26;20006;-76
2024/04/21 09:51:08;;;;;;;1.00;0.80;;;;;;;;;;6683886;26;20037;-76
2024/04/21 09:54:09;;;;;;;0.67;0.67;;;;;;;;;;6682386;26;20449;-76
2024/04/21 09:57:10;;;;;;;1.30;0.88;;;;;;;;;;6675555;26;20014;-76
2024/04/21 10:00:12;;;;;;;1.07;0.87;;;;;;;;;;6687929;26;19999;-76
2024/04/21 10:03:12;;;;;;;0.70;0.70;;;;;;;;;;6681972;26;20453;-76
2024/04/21 10:06:13;;;;;;;0.82;0.65;;;;;;;;;;6695459;26;20022;-76
2024/04/21 10:09:15;;;;;;;0.97;0.60;;;;;;;;;;6695271;26;20498;-76
2024/04/21 10:12:16;;;;;;;1.95;0.70;;;;;;;;;;6677429;26;20000;-76
2024/04/21 10:15:17;;;;;;;1.02;0.80;;;;;;;;;;6679197;26;20004;-76
2024/04/21 10:18:18;;;;;;;;;;;;;;;;;;6665543;26;20007;-77
2024/04/21 10:21:18;;;;;;;0.65;0.60;;;;;;;;;;6692164;26;19932;-78
2024/04/21 10:24:18;;;;;;;2.27;0.77;;;;;;;;;;6689191;26;20006;-78
2024/04/21 10:27:22;;;;;;;0.70;0.70;;;;;;;;;;6693148;26;20012;-78
2024/04/21 10:30:28;;;;;;;0.70;0.70;;;;;;;;;;6695850;26;20072;-78
2024/04/21 10:33:28;;;;;;;1.35;1.02;;;;;;;;;;6688950;26;20027;-78
2024/04/21 10:36:37;;;;;;;0.80;0.80;;;;;;;;;;6697407;26;20471;-78
2024/04/21 10:39:37;;;;;;;1.63;1.00;;;;;;;;;;6678920;26;20123;-77
2024/04/21 10:42:38;;;;;;;1.00;0.73;;;;;;;;;;6313887;26;9999904;-77
2024/04/21 10:45:39;;;;;;;1.00;0.90;;;;;;;;;;6695908;26;20031;-80
2024/04/21 10:48:39;;;;;;;1.20;0.90;;;;;;;;;;6725751;26;20074;-79
2024/04/21 10:51:39;;;;;;;1.50;1.00;;;;;;;;;;6682480;26;20144;-79
2024/04/21 10:54:39;;;;;;;1.00;0.73;;;;;;;;;;6669575;26;20015;-79
2024/04/21 10:57:41;;;;;;;2.87;1.27;;;;;;;;;;6681007;26;20346;-79
2024/04/21 11:00:41;;;;;;;1.38;0.93;;;;;;;;;;6681820;26;20357;-79
2024/04/21 11:03:42;;;;;;;1.00;0.90;;;;;;;;;;6694046;26;20064;-79
2024/04/21 11:06:42;;;;;;;1.45;1.00;;;;;;;;;;6686612;26;20004;-79
2024/04/21 11:09:42;;;;;;;0.97;0.67;;;;;;;;;;6715408;26;20012;-80
2024/04/21 11:12:43;;;;;;;0.73;0.73;;;;;;;;;;6709225;26;20456;-79
2024/04/21 11:15:43;;;;;;;1.00;0.80;;;;;;;;;;6675124;26;20109;-79
2024/04/21 11:18:44;;;;;;;1.07;0.83;;;;;;;;;;6717045;26;19999;-79
2024/04/21 11:21:44;;;;;;;1.00;0.90;;;;;;;;;;6700335;26;20015;-79
2024/04/21 11:24:45;;;;;;;1.20;1.10;;;;;;;;;;6687091;26;20008;-80
2024/04/21 11:27:45;;;;;;;1.20;1.10;;;;;;;;;;6666552;26;20047;-80
2024/04/21 11:30:45;;;;;;;0.93;0.83;;;;;;;;;;6718865;26;20060;-76
2024/04/21 11:33:46;;;;;;;0.70;0.70;;;;;;;;;;6685095;26;20074;-78
2024/04/21 11:36:46;;;;;;;1.50;0.70;;;;;;;;;;6711400;26;19996;-78
2024/04/21 11:39:46;;;;;;;1.10;1.00;;;;;;;;;;6712587;26;20420;-82
2024/04/21 11:42:47;;;;;;;0.93;0.83;;;;;;;;;;6648384;26;20473;-78
2024/04/21 11:45:47;;;;;;;1.37;0.80;;;;;;;;;;6672553;26;19996;-80
2024/04/21 11:48:51;;;;;;;2.23;0.93;;;;;;;;;;6720554;26;20060;-76
2024/04/21 11:51:52;;;;;;;0.60;0.60;;;;;;;;;;6678355;26;20333;-76
2024/04/21 11:54:52;;;;;;;0.90;0.80;;;;;;;;;;6691006;26;20006;-75
2024/04/21 11:57:52;;;;;;;0.80;0.80;;;;;;;;;;6719991;26;19987;-76
2024/04/21 12:00:52;;;;;;;0.73;0.67;;;;;;;;;;6725213;26;20021;-76
2024/04/21 12:03:53;;;;;;;0.97;0.80;;;;;;;;;;6710084;26;20000;-75
2024/04/21 12:06:53;;;;;;;1.20;1.00;;;;;;;;;;6677889;26;20425;-75
2024/04/21 12:09:53;;;;;;;1.30;0.90;;;;;;;;;;6713208;26;19991;-75
2024/04/21 12:12:54;;;;;;;1.63;1.07;;;;;;;;;;6687154;26;20012;-75
2024/04/21 12:15:54;;;;;;;1.03;0.93;;;;;;;;;;6678834;26;20301;-75
2024/04/21 12:18:54;;;;;;;1.00;0.90;;;;;;;;;;6677349;26;20227;-81
2024/04/21 12:21:55;;;;;;;1.10;1.00;;;;;;;;;;6718381;26;20352;-77
2024/04/21 12:24:55;;;;;;;1.57;1.10;;;;;;;;;;6713789;26;23097;-77
2024/04/21 12:27:55;;;;;;;0.90;0.80;;;;;;;;;;6682843;26;19993;-78
2024/04/21 12:31:00;;;;;;;1.17;0.70;;;;;;;;;;6683048;26;20024;-77
2024/04/21 12:34:00;;;;;;;2.25;0.90;;;;;;;;;;6683398;26;20357;-78
2024/04/21 12:37:00;;;;;;;1.27;1.10;;;;;;;;;;6687636;26;20007;-78
2024/04/21 12:40:01;;;;;;;1.67;1.10;;;;;;;;;;6727044;26;20039;-80
2024/04/21 12:43:01;;;;;;;1.10;1.00;;;;;;;;;;6727321;26;19992;-81
2024/04/21 12:46:01;;;;;;;1.63;0.90;;;;;;;;;;6728874;26;20023;-81
2024/04/21 12:49:01;;;;;;;0.87;0.80;;;;;;;;;;6772250;26;19983;-80
2024/04/21 12:52:02;;;;;;;0.70;0.70;;;;;;;;;;6747983;26;20004;-81
2024/04/21 12:55:02;;;;;;;0.97;0.93;;;;;;;;;;6714622;26;19998;-81
2024/04/21 12:58:03;;;;;;;1.25;1.10;;;;;;;;;;6764857;26;20614;-81
2024/04/21 13:01:03;;;;;;;0.70;0.70;;;;;;;;;;6656132;26;20381;-81
2024/04/21 13:04:05;;;;;;;1.03;0.90;;;;;;;;;;6688913;26;20445;-81
2024/04/21 13:07:05;;;;;;;0.73;0.73;;;;;;;;;;6652578;26;20465;-80
2024/04/21 13:10:06;;;;;;;0.80;0.80;;;;;;;;;;6714160;26;20066;-81
2024/04/21 13:13:07;;;;;;;1.13;1.00;;;;;;;;;;6651915;26;20049;-81
2024/04/21 13:16:07;;;;;;;1.17;0.90;;;;;;;;;;6683371;26;19992;-81
2024/04/21 13:19:08;;;;;;;1.40;0.90;;;;;;;;;;6707880;26;20467;-81
2024/04/21 13:22:08;;;;;;;1.15;0.82;;;;;;;;;;6703538;26;20447;-77
2024/04/21 13:25:08;;;;;;;1.07;0.80;;;;;;;;;;6699988;26;20431;-76
2024/04/21 13:28:08;;;;;;;2.00;0.97;;;;;;;;;;6689642;26;20514;-76
2024/04/21 13:31:09;;;;;;;1.13;1.00;;;;;;;;;;6679928;26;20456;-76
2024/04/21 13:34:09;;;;;;;1.17;1.07;;;;;;;;;;6705197;26;20075;-76
2024/04/21 13:37:09;;;;;;;1.40;1.10;;;;;;;;;;6694668;26;20014;-76
2024/04/21 13:40:10;;;;;;;1.03;0.93;;;;;;;;;;6681813;26;20007;-76
2024/04/21 13:43:10;;;;;;;1.10;1.00;;;;;;;;;;6686664;26;20028;-76
2024/04/21 13:46:10;;;;;;;1.23;1.13;;;;;;;;;;6689328;26;20011;-76
2024/04/21 13:49:11;;;;;;;1.30;1.20;;;;;;;;;;6701227;26;20012;-76
2024/04/21 13:52:11;;;;;;;1.20;1.10;;;;;;;;;;6688663;26;19999;-75
2024/04/21 13:55:11;;;;;;;1.30;1.20;;;;;;;;;;6690432;26;20007;-75
2024/04/21 13:58:11;;;;;;;1.77;1.10;;;;;;;;;;6692057;26;20000;-75
2024/04/21 14:01:11;;;;;;;2.00;1.00;;;;;;;;;;6689952;26;20008;-76
2024/04/21 14:04:12;;;;;;;0.90;0.90;;;;;;;;;;6678849;26;20102;-80
2024/04/21 14:07:12;;;;;;;1.70;1.33;;;;;;;;;;6687341;26;20755;-79
2024/04/21 14:10:12;;;;;;;1.43;1.33;;;;;;;;;;6716938;26;20006;-79
2024/04/21 14:13:14;;;;;;;1.83;1.00;;;;;;;;;;6699797;26;20066;-84
2024/04/21 14:16:14;;;;;;;1.42;1.10;;;;;;;;;;6691556;26;20011;-76
2024/04/21 14:19:15;;;;;;;1.40;1.20;;;;;;;;;;6689657;26;20472;-76
2024/04/21 14:22:15;;;;;;;1.03;0.90;;;;;;;;;;6683965;26;20007;-77
2024/04/21 14:25:15;;;;;;;4.73;1.30;;;;;;;;;;6688999;26;19996;-76
2024/04/21 14:28:15;;;;;;;1.67;1.40;;;;;;;;;;6692909;26;20019;-76
2024/04/21 14:31:16;;;;;;;2.27;1.20;;;;;;;;;;6684235;26;20038;-77
2024/04/21 14:34:17;;;;;;;1.77;1.40;;;;;;;;;;6705989;26;20001;-77
2024/04/21 14:37:17;;;;;;;1.10;1.10;;;;;;;;;;6702475;26;20040;-76
2024/04/21 14:40:17;;;;;;;1.13;0.93;;;;;;;;;;6724705;26;20512;-76
2024/04/21 14:43:18;;;;;;;1.03;0.90;;;;;;;;;;6695175;26;20493;-76
2024/04/21 14:46:18;;;;;;;1.10;1.00;;;;;;;;;;6691044;26;20337;-76
2024/04/21 14:49:19;;;;;;;2.87;1.20;;;;;;;;;;6732493;26;20031;-77
2024/04/21 14:52:20;;;;;;;1.30;1.20;;;;;;;;;;6700708;26;19996;-77
2024/04/21 14:55:21;;;;;;;1.27;1.15;;;;;;;;;;6724868;26;19995;-76
2024/04/21 14:58:21;;;;;;;1.30;1.00;;;;;;;;;;6723483;26;20006;-76
2024/04/21 15:01:21;;;;;;;2.10;1.10;;;;;;;;;;6695924;26;20008;-78
2024/04/21 15:04:21;;;;;;;1.43;1.33;;;;;;;;;;6679854;26;19988;-78
2024/04/21 15:07:22;;;;;;;1.10;0.97;;;;;;;;;;6681969;26;20007;-78
2024/04/21 15:10:22;;;;;;;1.27;1.10;;;;;;;;;;6670672;26;20007;-78
2024/04/21 15:13:22;;;;;;;1.57;1.20;;;;;;;;;;6702067;26;20006;-78
2024/04/21 15:16:22;;;;;;;1.73;1.20;;;;;;;;;;6685838;26;20520;-78
2024/04/21 15:19:23;;;;;;;0.80;0.80;;;;;;;;;;6691057;26;20444;-78
2024/04/21 15:22:23;;;;;;;1.23;1.13;;;;;;;;;;6677200;26;20472;-79
2024/04/21 15:25:23;;;;;;;1.13;0.90;;;;;;;;;;6683311;26;20445;-78
2024/04/21 15:28:23;;;;;;;1.53;0.90;;;;;;;;;;6670338;26;20412;-78
2024/04/21 15:31:24;;;;;;;1.27;1.10;;;;;;;;;;6693915;26;20493;-78
2024/04/21 15:34:24;;;;;;;1.73;0.80;;;;;;;;;;6694114;26;20444;-78
2024/04/21 15:37:24;;;;;;;1.27;0.90;;;;;;;;;;6687072;26;20449;-78
2024/04/21 15:40:24;;;;;;;1.00;0.80;;;;;;;;;;6686667;26;20398;-77
2024/04/21 15:43:25;;;;;;;1.20;1.10;;;;;;;;;;6707707;26;20346;-78
2024/04/21 15:46:27;;;;;;;1.10;1.00;;;;;;;;;;6699792;26;20024;-78
2024/04/21 15:49:28;;;;;;;1.20;0.75;;;;;;;;;;6688203;26;20410;-78
2024/04/21 15:52:28;;;;;;;0.80;0.80;;;;;;;;;;6675691;26;20024;-78
2024/04/21 15:55:28;;;;;;;1.57;0.87;;;;;;;;;;6676931;26;20007;-78
2024/04/21 15:58:28;;;;;;;1.03;0.90;;;;;;;;;;6689211;26;20083;-79
2024/04/21 16:01:29;;;;;;;1.10;0.70;;;;;;;;;;6693535;26;20003;-80
2024/04/21 16:04:29;;;;;;;0.68;0.68;;;;;;;;;;6694734;26;20035;-82
2024/04/21 16:07:29;;;;;;;0.80;0.70;;;;;;;;;;6684991;26;20000;-78
2024/04/21 16:10:30;;;;;;;0.80;0.80;;;;;;;;;;6683696;26;20433;-76
2024/04/21 16:13:30;;;;;;;1.03;0.93;;;;;;;;;;6705385;26;20448;-77
2024/04/21 16:16:30;;;;;;;1.17;0.90;;;;;;;;;;6720623;26;20352;-75
2024/04/21 16:19:31;;;;;;;0.90;0.80;;;;;;;;;;6703347;26;20027;-75
2024/04/21 16:22:31;;;;;;;0.90;0.87;;;;;;;;;;6724969;26;20036;-75
2024/04/21 16:25:32;;;;;;;1.17;0.80;;;;;;;;;;6681581;26;20000;-75
2024/04/21 16:28:32;;;;;;;1.00;0.80;;;;;;;;;;6724163;26;20452;-75
2024/04/21 16:31:39;;;;;;;0.80;0.70;;;;;;;;;;6698525;26;20031;-76
2024/04/21 16:34:39;;;;;;;1.27;0.85;;;;;;;;;;6716277;26;20012;-76
2024/04/21 16:37:39;;;;;;;0.83;0.80;;;;;;;;;;6722212;26;20006;-76
2024/04/21 16:40:40;;;;;;;0.87;0.80;;;;;;;;;;6722604;26;20467;-75
2024/04/21 16:43:40;;;;;;;1.00;0.90;;;;;;;;;;6699953;26;20006;-75
2024/04/21 16:46:43;;;;;;;0.93;0.80;;;;;;;;;;6707990;26;20448;-75
2024/04/21 16:49:43;;;;;;;0.93;0.82;;;;;;;;;;6718128;26;20019;-75
2024/04/21 16:52:45;;;;;;;0.80;0.73;;;;;;;;;;6719450;26;20003;-75
2024/04/21 16:55:45;;;;;;;;;;;;;;;;;;6710859;26;20337;-75
2024/04/21 16:58:46;;;;;;;1.05;0.60;;;;;;;;;;6699721;26;20362;-75
2024/04/21 17:01:47;;;;;;;1.40;0.70;;;;;;;;;;6720772;26;19995;-75
2024/04/21 17:04:54;;;;;;;1.00;0.88;;;;;;;;;;6718744;26;20088;-75
2024/04/21 17:08:17;;;;;;;1.30;1.20;;;;;;;;;;6688223;26;20558;-75
2024/04/21 17:11:18;;;;;;;1.10;0.90;;;;;;;;;;6669344;26;20000;-75
2024/04/21 17:14:20;;;;;;;1.10;1.00;;;;;;;;;;6688894;26;20040;-75
2024/04/21 17:17:20;;;;;;;1.30;0.82;;;;;;;;;;6685765;26;20001;-75
2024/04/21 17:20:20;;;;;;;0.80;0.80;;;;;;;;;;6658660;26;20448;-75
2024/04/21 17:23:20;;;;;;;1.10;0.77;;;;;;;;;;6675923;26;20004;-75
2024/04/21 17:26:21;;;;;;;0.57;0.57;;;;;;;;;;6691916;26;20765;-75
2024/04/21 17:29:21;;;;;;;0.90;0.80;;;;;;;;;;6677521;26;20037;-75
2024/04/21 17:32:21;;;;;;;1.17;0.80;;;;;;;;;;6683298;26;19996;-75
2024/04/21 17:35:21;;;;;;;1.40;0.80;;;;;;;;;;6688371;26;20003;-75
2024/04/21 17:38:22;;;;;;;1.00;0.70;;;;;;;;;;6687930;26;20004;-75
2024/04/21 17:41:24;;;;;;;1.00;0.75;;;;;;;;;;6677384;26;20035;-75
2024/04/21 17:44:24;;;;;;;1.38;1.10;;;;;;;;;;6682092;26;20011;-75
2024/04/21 17:47:25;;;;;;;1.00;0.80;;;;;;;;;;6674653;26;20086;-76
2024/04/21 17:50:25;;;;;;;0.90;0.90;;;;;;;;;;6662060;26;20000;-75
2024/04/21 17:53:25;;;;;;;0.83;0.80;;;;;;;;;;6685806;26;20337;-75
2024/04/21 17:56:25;;;;;;;0.90;0.77;;;;;;;;;;6648890;26;20069;-75
2024/04/21 17:59:26;;;;;;;1.07;0.80;;;;;;;;;;6682339;26;20008;-75
2024/04/21 18:02:26;;;;;;;1.00;0.90;;;;;;;;;;6679673;26;20490;-75